Time;durP1;ratioP1;P1;durP2;ratioP2;P2;SDS_P1;SDS_P2;PMS_P1;PMS_P2;Temp;Humidity;BMP_temperature;BMP_pressure;BME280_temperature;BME280_humidity;BME280_pressure;Samples;Min_cycle;Max_cycle;Signal;HPM_P1;HPM_P2
2021/07/09 00:00:49;;;;;;;8.13;5.37;;;;;;;;;;5073575;28;20294;-77
2021/07/09 00:03:16;;;;;;;9.40;4.80;;;;;;;;;;5072830;28;20197;-77
2021/07/09 00:05:44;;;;;;;7.53;4.90;;;;;;;;;;5075193;28;20222;-77
2021/07/09 00:08:12;;;;;;;7.83;5.00;;;;;;;;;;5073981;28;20884;-78
2021/07/09 00:10:39;;;;;;;10.17;4.93;;;;;;;;;;5073811;28;20195;-78
2021/07/09 00:13:06;;;;;;;8.13;4.70;;;;;;;;;;5074222;28;20800;-77
2021/07/09 00:15:35;;;;;;;12.00;5.37;;;;;;;;;;5076368;28;20589;-77
2021/07/09 00:18:02;;;;;;;8.83;5.50;;;;;;;;;;5075951;28;20201;-77
2021/07/09 00:20:29;;;;;;;8.07;5.63;;;;;;;;;;5073598;28;20226;-77
2021/07/09 00:22:57;;;;;;;11.17;5.43;;;;;;;;;;5076521;28;20216;-77
2021/07/09 00:25:25;;;;;;;17.63;5.67;;;;;;;;;;5076056;28;20253;-76
2021/07/09 00:27:52;;;;;;;10.77;5.53;;;;;;;;;;5075983;28;20197;-77
2021/07/09 00:30:19;;;;;;;8.90;6.00;;;;;;;;;;5072958;28;20347;-77
2021/07/09 00:32:46;;;;;;;10.53;5.30;;;;;;;;;;5075562;28;20208;-78
2021/07/09 00:35:14;;;;;;;12.50;5.57;;;;;;;;;;5075935;28;20232;-77
2021/07/09 00:37:41;;;;;;;11.10;6.10;;;;;;;;;;5072950;28;20210;-78
2021/07/09 00:40:09;;;;;;;10.00;5.40;;;;;;;;;;5073176;28;20230;-77
2021/07/09 00:42:38;;;;;;;12.23;5.07;;;;;;;;;;5075424;28;20276;-77
2021/07/09 00:45:05;;;;;;;8.87;5.50;;;;;;;;;;5073675;28;20236;-77
2021/07/09 00:47:32;;;;;;;7.20;5.23;;;;;;;;;;5072970;28;20209;-77
2021/07/09 00:49:59;;;;;;;11.30;5.80;;;;;;;;;;5073554;28;20209;-77
2021/07/09 00:52:26;;;;;;;10.60;5.47;;;;;;;;;;5076623;28;20204;-77
2021/07/09 00:54:54;;;;;;;10.13;5.30;;;;;;;;;;5073190;28;20229;-77
2021/07/09 00:57:21;;;;;;;9.37;5.53;;;;;;;;;;5075377;28;20677;-77
2021/07/09 00:59:50;;;;;;;7.97;4.83;;;;;;;;;;5074300;28;20305;-77
2021/07/09 01:02:17;;;;;;;9.03;5.40;;;;;;;;;;5075860;28;20194;-77
2021/07/09 01:04:45;;;;;;;15.30;5.80;;;;;;;;;;5074446;28;20320;-76
2021/07/09 01:07:12;;;;;;;8.83;4.60;;;;;;;;;;5073379;28;20205;-76
2021/07/09 01:09:39;;;;;;;7.80;4.70;;;;;;;;;;5073373;28;20433;-75
2021/07/09 01:12:06;;;;;;;7.97;5.57;;;;;;;;;;5076350;28;20208;-76
2021/07/09 01:14:34;;;;;;;6.50;4.30;;;;;;;;;;5077400;28;20281;-75
2021/07/09 01:17:02;;;;;;;6.40;4.30;;;;;;;;;;5074111;28;20198;-75
2021/07/09 01:19:30;;;;;;;8.70;5.10;;;;;;;;;;5072977;28;20214;-76
2021/07/09 01:21:57;;;;;;;7.53;5.13;;;;;;;;;;5077147;28;20229;-76
2021/07/09 01:24:26;;;;;;;10.27;5.17;;;;;;;;;;5075995;28;20201;-75
2021/07/09 01:26:53;;;;;;;9.27;5.17;;;;;;;;;;5075957;28;20198;-76
2021/07/09 01:29:20;;;;;;;11.17;5.90;;;;;;;;;;5076620;28;20850;-76
2021/07/09 01:31:47;;;;;;;7.27;5.07;;;;;;;;;;5078243;28;20222;-75
2021/07/09 01:34:14;;;;;;;9.50;5.27;;;;;;;;;;5075389;28;20198;-75
2021/07/09 01:36:42;;;;;;;8.80;5.30;;;;;;;;;;5074134;28;20228;-75
2021/07/09 01:39:09;;;;;;;10.83;5.60;;;;;;;;;;5074533;28;20658;-75
2021/07/09 01:41:37;;;;;;;9.37;5.80;;;;;;;;;;5075525;28;20221;-75
2021/07/09 01:44:05;;;;;;;12.67;6.33;;;;;;;;;;5074034;28;20503;-75
2021/07/09 01:46:32;;;;;;;10.27;5.90;;;;;;;;;;5077133;28;20676;-76
2021/07/09 01:48:59;;;;;;;9.77;6.50;;;;;;;;;;5076223;28;20591;-75
2021/07/09 01:51:26;;;;;;;8.43;5.37;;;;;;;;;;5077153;28;20204;-75
2021/07/09 01:53:53;;;;;;;9.93;6.53;;;;;;;;;;5076789;28;20205;-75
2021/07/09 01:56:20;;;;;;;7.57;4.60;;;;;;;;;;5075921;28;20232;-76
2021/07/09 01:58:49;;;;;;;8.57;5.70;;;;;;;;;;5072576;28;20449;-76
2021/07/09 02:01:16;;;;;;;8.60;6.60;;;;;;;;;;5076846;28;20233;-75
2021/07/09 02:03:43;;;;;;;10.67;5.57;;;;;;;;;;5073412;28;20194;-75
2021/07/09 02:06:11;;;;;;;8.10;5.93;;;;;;;;;;5075289;28;20229;-76
2021/07/09 02:08:38;;;;;;;14.07;6.53;;;;;;;;;;5073739;28;20206;-76
2021/07/09 02:11:05;;;;;;;11.50;6.97;;;;;;;;;;5075222;28;20223;-76
2021/07/09 02:13:32;;;;;;;10.80;6.40;;;;;;;;;;5075987;28;20300;-76
2021/07/09 02:16:01;;;;;;;10.10;6.63;;;;;;;;;;5072275;28;20412;-76
2021/07/09 02:18:28;;;;;;;14.10;7.17;;;;;;;;;;5073266;28;20201;-78
2021/07/09 02:20:56;;;;;;;10.90;7.30;;;;;;;;;;5077060;28;20239;-76
2021/07/09 02:23:23;;;;;;;9.80;7.00;;;;;;;;;;5075268;28;20640;-76
2021/07/09 02:25:50;;;;;;;10.67;6.30;;;;;;;;;;5076967;28;20709;-75
2021/07/09 02:28:17;;;;;;;14.17;6.97;;;;;;;;;;5074365;28;20692;-76
2021/07/09 02:30:44;;;;;;;11.23;7.60;;;;;;;;;;5073561;28;20545;-76
2021/07/09 02:33:13;;;;;;;11.37;8.20;;;;;;;;;;5074800;28;20212;-76
2021/07/09 02:35:41;;;;;;;8.83;5.93;;;;;;;;;;5073157;28;20221;-76
2021/07/09 02:38:09;;;;;;;9.80;7.37;;;;;;;;;;5074580;28;20201;-76
2021/07/09 02:40:36;;;;;;;12.17;7.90;;;;;;;;;;5078749;28;20237;-76
2021/07/09 02:43:05;;;;;;;10.87;7.20;;;;;;;;;;5080325;28;20213;-76
2021/07/09 02:45:32;;;;;;;15.90;8.00;;;;;;;;;;5080208;28;20711;-75
2021/07/09 02:47:59;;;;;;;10.63;8.07;;;;;;;;;;5081570;28;20209;-76
2021/07/09 02:50:28;;;;;;;16.57;7.57;;;;;;;;;;5077798;28;20202;-75
2021/07/09 02:52:55;;;;;;;17.90;9.87;;;;;;;;;;5076988;28;20548;-75
2021/07/09 02:55:23;;;;;;;13.37;8.70;;;;;;;;;;5078096;28;20222;-75
2021/07/09 02:57:51;;;;;;;13.17;8.83;;;;;;;;;;5078741;28;20219;-75
2021/07/09 03:00:19;;;;;;;15.47;8.73;;;;;;;;;;5079066;28;20205;-76
2021/07/09 03:02:46;;;;;;;17.40;9.50;;;;;;;;;;5077478;28;20194;-76
2021/07/09 03:05:13;;;;;;;18.83;9.87;;;;;;;;;;5077910;28;20247;-76
2021/07/09 03:07:42;;;;;;;19.23;9.73;;;;;;;;;;5078021;28;20209;-76
2021/07/09 03:10:10;;;;;;;13.33;9.33;;;;;;;;;;5078055;28;20210;-76
2021/07/09 03:12:38;;;;;;;15.77;9.60;;;;;;;;;;5077462;28;20911;-75
2021/07/09 03:15:06;;;;;;;18.10;9.23;;;;;;;;;;5077869;28;20723;-76
2021/07/09 03:17:33;;;;;;;17.17;10.00;;;;;;;;;;5078934;28;20194;-76
2021/07/09 03:20:00;;;;;;;17.23;10.27;;;;;;;;;;5077627;28;20207;-75
2021/07/09 03:22:27;;;;;;;15.47;9.97;;;;;;;;;;5077755;28;20222;-76
2021/07/09 03:24:56;;;;;;;14.43;8.80;;;;;;;;;;5078240;28;20674;-76
2021/07/09 03:27:23;;;;;;;15.97;8.43;;;;;;;;;;5077351;28;20299;-76
2021/07/09 03:29:50;;;;;;;12.17;6.83;;;;;;;;;;5078079;28;20292;-76
2021/07/09 03:32:17;;;;;;;14.43;10.07;;;;;;;;;;5077848;28;20210;-75
2021/07/09 03:34:44;;;;;;;18.57;9.90;;;;;;;;;;5079513;28;20218;-76
2021/07/09 03:37:11;;;;;;;15.20;10.50;;;;;;;;;;5078836;28;20210;-76
2021/07/09 03:39:39;;;;;;;16.50;10.20;;;;;;;;;;5074805;28;20672;-75
2021/07/09 03:42:07;;;;;;;12.27;9.00;;;;;;;;;;5076489;28;20218;-75
2021/07/09 03:44:34;;;;;;;17.03;11.07;;;;;;;;;;5076416;28;20205;-75
2021/07/09 03:47:01;;;;;;;18.30;10.83;;;;;;;;;;5078753;28;20211;-75
2021/07/09 03:49:29;;;;;;;16.17;11.20;;;;;;;;;;5077511;28;20204;-75
2021/07/09 03:51:56;;;;;;;19.13;11.57;;;;;;;;;;5078236;28;20197;-74
2021/07/09 03:54:23;;;;;;;14.83;8.63;;;;;;;;;;5076647;28;20684;-75
2021/07/09 03:56:50;;;;;;;17.93;12.27;;;;;;;;;;5077556;28;20214;-75
2021/07/09 03:59:18;;;;;;;20.83;12.07;;;;;;;;;;5076221;28;20206;-75
2021/07/09 04:01:46;;;;;;;22.53;12.30;;;;;;;;;;5075239;28;20229;-74
2021/07/09 04:04:13;;;;;;;20.17;12.03;;;;;;;;;;5076467;28;20220;-74
2021/07/09 04:06:40;;;;;;;17.87;12.43;;;;;;;;;;5077035;28;20217;-74
2021/07/09 04:09:07;;;;;;;22.33;12.87;;;;;;;;;;5075815;28;20202;-74
2021/07/09 04:11:34;;;;;;;19.37;12.23;;;;;;;;;;5076136;28;20610;-74
2021/07/09 04:14:01;;;;;;;20.07;12.90;;;;;;;;;;5079942;28;20209;-74
2021/07/09 04:16:30;;;;;;;23.80;12.60;;;;;;;;;;5079153;28;20232;-74
2021/07/09 04:18:57;;;;;;;18.93;12.43;;;;;;;;;;5075202;28;20198;-74
2021/07/09 04:21:24;;;;;;;19.50;12.53;;;;;;;;;;5076728;28;20221;-75
2021/07/09 04:23:51;;;;;;;20.63;12.50;;;;;;;;;;5073412;28;20224;-75
2021/07/09 04:26:18;;;;;;;23.60;13.00;;;;;;;;;;5075016;28;20773;-75
2021/07/09 04:28:46;;;;;;;23.87;14.37;;;;;;;;;;5076336;28;20197;-74
2021/07/09 04:31:13;;;;;;;25.30;14.17;;;;;;;;;;5074818;28;20682;-75
2021/07/09 04:33:43;;;;;;;24.90;13.07;;;;;;;;;;5074515;28;20202;-74
2021/07/09 04:36:10;;;;;;;21.40;13.70;;;;;;;;;;5072691;28;20245;-75
2021/07/09 04:38:37;;;;;;;24.83;13.97;;;;;;;;;;5070898;28;20205;-74
2021/07/09 04:41:05;;;;;;;23.97;14.47;;;;;;;;;;5104125;22;20595;-86
2021/07/09 04:43:32;;;;;;;22.43;13.40;;;;;;;;;;5047718;28;20267;-85
2021/07/09 04:46:00;;;;;;;18.90;11.63;;;;;;;;;;5046622;28;20249;-85
2021/07/09 04:48:27;;;;;;;22.10;14.03;;;;;;;;;;5047585;28;20214;-85
2021/07/09 04:50:56;;;;;;;21.93;13.73;;;;;;;;;;5054638;28;20631;-86
2021/07/09 04:53:23;;;;;;;25.37;14.17;;;;;;;;;;5057115;28;20214;-86
2021/07/09 04:55:50;;;;;;;24.37;14.67;;;;;;;;;;5066423;28;20294;-86
2021/07/09 04:58:17;;;;;;;23.20;14.70;;;;;;;;;;5062380;28;20203;-85
2021/07/09 05:00:45;;;;;;;22.90;14.33;;;;;;;;;;5065817;28;20673;-85
2021/07/09 05:03:12;;;;;;;24.47;14.40;;;;;;;;;;5062581;28;20244;-86
2021/07/09 05:05:40;;;;;;;23.57;15.23;;;;;;;;;;5062775;28;20285;-85
2021/07/09 05:08:08;;;;;;;21.67;12.80;;;;;;;;;;5057598;28;20203;-85
2021/07/09 05:10:45;;;;;;;23.03;14.07;;;;;;;;;;5057400;28;20218;-86
2021/07/09 05:13:16;;;;;;;23.47;13.90;;;;;;;;;;5056283;28;20674;-86
2021/07/09 05:15:45;;;;;;;26.67;14.93;;;;;;;;;;5056662;28;20211;-86
2021/07/09 05:18:12;;;;;;;18.40;11.43;;;;;;;;;;5058739;28;20203;-85
2021/07/09 05:20:40;;;;;;;19.53;13.47;;;;;;;;;;5060590;28;20202;-87
2021/07/09 05:23:08;;;;;;;25.57;13.93;;;;;;;;;;5059646;28;20233;-86
2021/07/09 05:25:36;;;;;;;25.33;14.73;;;;;;;;;;5069248;28;20532;-85
2021/07/09 05:28:05;;;;;;;18.93;12.50;;;;;;;;;;5063251;28;20273;-86
2021/07/09 05:30:32;;;;;;;24.90;14.77;;;;;;;;;;5063453;28;20214;-86
2021/07/09 05:33:03;;;;;;;22.77;12.13;;;;;;;;;;5072586;28;20206;-86
2021/07/09 05:35:32;;;;;;;29.67;14.53;;;;;;;;;;5067390;28;20601;-87
2021/07/09 10:43:31;;;;;;;6.83;5.00;;;;;;;;;;5094404;22;20232;-83
2021/07/09 10:46:06;;;;;;;9.87;4.43;;;;;;;;;;5086014;28;20205;-83
2021/07/09 10:48:37;;;;;;;9.30;4.80;;;;;;;;;;5080543;28;20669;-82
2021/07/09 10:51:04;;;;;;;8.13;4.63;;;;;;;;;;5086574;28;20232;-83
2021/07/09 10:53:34;;;;;;;8.60;4.10;;;;;;;;;;5084919;28;20219;-84
2021/07/09 10:56:02;;;;;;;11.33;4.43;;;;;;;;;;5082486;28;20198;-82
2021/07/09 10:58:44;;;;;;;11.47;4.87;;;;;;;;;;5081123;28;20222;-83
2021/07/09 11:01:21;;;;;;;7.50;4.80;;;;;;;;;;5083735;28;20206;-84
2021/07/09 11:03:49;;;;;;;10.63;4.10;;;;;;;;;;5082161;28;20236;-82
2021/07/09 11:06:19;;;;;;;6.07;4.27;;;;;;;;;;5086922;28;20749;-82
2021/07/09 11:08:50;;;;;;;7.93;4.07;;;;;;;;;;5080171;28;20217;-81
2021/07/09 11:11:18;;;;;;;6.13;4.03;;;;;;;;;;5081401;28;20241;-84
2021/07/09 11:13:51;;;;;;;8.03;4.10;;;;;;;;;;5087272;28;20269;-81
2021/07/09 11:16:19;;;;;;;11.67;4.30;;;;;;;;;;5089785;28;20201;-84
2021/07/09 11:18:50;;;;;;;8.03;4.20;;;;;;;;;;5087007;28;20288;-83
2021/07/09 11:21:18;;;;;;;8.80;3.93;;;;;;;;;;5086136;28;20356;-83
2021/07/09 11:24:02;;;;;;;5.50;3.90;;;;;;;;;;5083514;28;20233;-84
2021/07/09 11:26:30;;;;;;;6.57;3.73;;;;;;;;;;5082189;28;20616;-83
2021/07/09 11:28:59;;;;;;;9.57;4.30;;;;;;;;;;5083905;28;20294;-82
2021/07/09 11:31:31;;;;;;;9.30;4.20;;;;;;;;;;5091691;28;20236;-82
2021/07/09 11:34:01;;;;;;;5.37;3.80;;;;;;;;;;5091335;28;20206;-83
2021/07/09 11:36:29;;;;;;;6.80;3.70;;;;;;;;;;5088055;28;20203;-84
2021/07/09 11:39:05;;;;;;;4.57;3.13;;;;;;;;;;5087665;28;20766;-84
2021/07/09 11:41:33;;;;;;;7.73;3.60;;;;;;;;;;5090939;28;20677;-83
2021/07/09 11:44:02;;;;;;;8.97;4.03;;;;;;;;;;5094364;28;20678;-83
2021/07/09 11:46:29;;;;;;;5.57;3.67;;;;;;;;;;5089385;28;20200;-84
2021/07/09 11:49:02;;;;;;;5.10;3.10;;;;;;;;;;5090312;28;20202;-83
2021/07/09 11:51:29;;;;;;;6.83;3.50;;;;;;;;;;5095428;28;20217;-84
2021/07/09 11:54:06;;;;;;;6.97;3.80;;;;;;;;;;5088456;28;20194;-83
2021/07/09 11:56:39;;;;;;;7.63;3.70;;;;;;;;;;5091741;28;20245;-84
2021/07/09 11:59:15;;;;;;;6.40;3.50;;;;;;;;;;5092697;28;20242;-84
2021/07/09 12:01:42;;;;;;;7.50;4.30;;;;;;;;;;5093515;28;20228;-83
2021/07/09 12:04:10;;;;;;;10.23;4.73;;;;;;;;;;5097418;28;20232;-83
2021/07/09 12:06:37;;;;;;;12.30;4.53;;;;;;;;;;5094559;28;20194;-83
2021/07/09 12:09:04;;;;;;;6.80;4.60;;;;;;;;;;5095584;28;20270;-83
2021/07/09 12:11:31;;;;;;;7.63;4.37;;;;;;;;;;5091568;28;20232;-83
2021/07/09 12:14:06;;;;;;;7.53;4.57;;;;;;;;;;5094486;28;20198;-83
2021/07/09 12:16:35;;;;;;;6.97;4.70;;;;;;;;;;5107586;28;20227;-83
2021/07/09 12:19:03;;;;;;;7.50;4.40;;;;;;;;;;5107743;28;20206;-82
2021/07/09 12:21:30;;;;;;;7.67;4.73;;;;;;;;;;5100594;28;20218;-83
2021/07/09 12:24:03;;;;;;;9.90;4.40;;;;;;;;;;5087320;28;20222;-83
2021/07/09 12:26:31;;;;;;;8.23;4.87;;;;;;;;;;5084083;28;20206;-82
2021/07/09 12:28:59;;;;;;;8.83;5.00;;;;;;;;;;5080317;28;20212;-82
2021/07/09 12:31:27;;;;;;;8.00;5.37;;;;;;;;;;5083763;28;20683;-82
2021/07/09 12:33:55;;;;;;;8.83;5.30;;;;;;;;;;5085944;28;20226;-82
2021/07/09 12:36:23;;;;;;;7.03;4.53;;;;;;;;;;5087720;28;20669;-82
2021/07/09 12:38:59;;;;;;;9.30;5.33;;;;;;;;;;5088949;28;20643;-82
2021/07/09 12:41:33;;;;;;;8.07;4.50;;;;;;;;;;5087647;28;20677;-83
2021/07/09 12:44:07;;;;;;;7.87;4.97;;;;;;;;;;5086749;28;20230;-83
2021/07/09 12:46:35;;;;;;;7.03;4.90;;;;;;;;;;5088099;28;20229;-82
2021/07/09 12:49:04;;;;;;;8.60;5.77;;;;;;;;;;5086816;28;20209;-83
2021/07/09 12:51:33;;;;;;;9.13;5.37;;;;;;;;;;5083311;28;20661;-82
2021/07/09 12:54:01;;;;;;;11.57;6.00;;;;;;;;;;5079708;28;20707;-83
2021/07/09 12:56:29;;;;;;;9.27;5.70;;;;;;;;;;5081924;28;21479;-82
2021/07/09 12:59:00;;;;;;;7.53;5.23;;;;;;;;;;5083163;28;20237;-83
2021/07/09 13:01:27;;;;;;;8.07;5.17;;;;;;;;;;5082510;28;20206;-83
2021/07/09 13:03:54;;;;;;;8.70;5.03;;;;;;;;;;5083870;28;20317;-82
2021/07/09 13:06:29;;;;;;;9.97;5.50;;;;;;;;;;5082492;28;20200;-84
2021/07/09 13:09:13;;;;;;;7.97;5.40;;;;;;;;;;5078923;28;20205;-83
2021/07/09 13:11:41;;;;;;;11.60;5.30;;;;;;;;;;5081006;28;20217;-84
2021/07/09 13:14:08;;;;;;;9.37;5.43;;;;;;;;;;5079353;28;20288;-82
2021/07/09 13:16:47;;;;;;;9.27;5.37;;;;;;;;;;5083885;28;20261;-83
2021/07/09 13:19:14;;;;;;;7.43;5.00;;;;;;;;;;5079435;28;20220;-83
2021/07/09 13:21:52;;;;;;;9.20;5.83;;;;;;;;;;5082322;28;20213;-82
2021/07/09 13:24:19;;;;;;;9.40;6.23;;;;;;;;;;5080435;28;20225;-83
2021/07/09 13:26:47;;;;;;;9.33;5.63;;;;;;;;;;5080565;28;20662;-84
2021/07/09 13:29:18;;;;;;;8.27;5.40;;;;;;;;;;5083892;28;20518;-84
2021/07/09 13:31:46;;;;;;;8.77;5.60;;;;;;;;;;5084028;28;20786;-82
2021/07/09 13:34:13;;;;;;;10.50;5.60;;;;;;;;;;5084224;28;20227;-85
2021/07/09 13:36:40;;;;;;;6.77;4.93;;;;;;;;;;5081855;28;20327;-85
2021/07/09 13:39:08;;;;;;;9.60;4.30;;;;;;;;;;5083793;28;20325;-85
2021/07/09 13:41:36;;;;;;;7.97;4.03;;;;;;;;;;5085738;28;20206;-83
2021/07/09 13:44:03;;;;;;;6.27;4.30;;;;;;;;;;5082683;28;20233;-85
2021/07/09 13:46:30;;;;;;;7.17;4.43;;;;;;;;;;5081741;28;20266;-84
2021/07/09 13:48:57;;;;;;;9.00;4.60;;;;;;;;;;5081514;28;20213;-83
2021/07/09 13:51:25;;;;;;;6.30;4.60;;;;;;;;;;5084164;28;20236;-84
2021/07/09 13:53:52;;;;;;;7.83;4.47;;;;;;;;;;5089435;28;20237;-84
2021/07/09 13:56:20;;;;;;;10.23;4.80;;;;;;;;;;5088548;28;20392;-82
2021/07/09 13:58:48;;;;;;;8.13;4.47;;;;;;;;;;5102485;28;20637;-82
2021/07/09 14:01:15;;;;;;;7.93;4.80;;;;;;;;;;5103707;28;20312;-83
2021/07/09 14:03:42;;;;;;;10.67;6.27;;;;;;;;;;5091091;28;20393;-83
2021/07/09 14:06:10;;;;;;;14.30;8.10;;;;;;;;;;5082016;28;20466;-85
2021/07/09 14:08:37;;;;;;;15.83;7.83;;;;;;;;;;5082822;28;20582;-84
2021/07/09 14:11:05;;;;;;;12.33;8.27;;;;;;;;;;5084499;28;20650;-84
2021/07/09 14:13:35;;;;;;;13.10;8.60;;;;;;;;;;5088338;28;20271;-84
2021/07/09 14:16:02;;;;;;;12.63;8.47;;;;;;;;;;5090831;28;20633;-84
2021/07/09 14:18:30;;;;;;;13.50;8.73;;;;;;;;;;5082963;28;20221;-82
2021/07/09 14:20:57;;;;;;;13.10;8.33;;;;;;;;;;5084877;28;21240;-83
2021/07/09 14:23:24;;;;;;;11.00;7.90;;;;;;;;;;5080830;28;20261;-84
2021/07/09 14:25:52;;;;;;;9.47;6.97;;;;;;;;;;5081929;28;20665;-83
2021/07/09 14:28:20;;;;;;;11.40;7.87;;;;;;;;;;5089583;28;20764;-85
2021/07/09 14:30:49;;;;;;;11.23;7.67;;;;;;;;;;5085297;28;20203;-83
2021/07/09 14:33:16;;;;;;;10.63;7.13;;;;;;;;;;5087349;28;20279;-84
2021/07/09 14:35:43;;;;;;;9.47;6.40;;;;;;;;;;5087913;28;20296;-84
2021/07/09 14:38:11;;;;;;;7.47;5.60;;;;;;;;;;5089711;28;20212;-84
2021/07/09 14:40:38;;;;;;;7.73;5.77;;;;;;;;;;5083948;28;20210;-84
2021/07/09 14:43:05;;;;;;;7.60;5.60;;;;;;;;;;5092315;28;20633;-83
2021/07/09 14:45:33;;;;;;;8.50;6.30;;;;;;;;;;5086332;28;20198;-85
2021/07/09 14:48:01;;;;;;;9.13;5.93;;;;;;;;;;5097210;28;20269;-83
2021/07/09 14:50:29;;;;;;;5.93;4.83;;;;;;;;;;5097198;28;20265;-84
2021/07/09 14:52:56;;;;;;;8.07;6.37;;;;;;;;;;5094324;28;20643;-83
2021/07/09 14:55:23;;;;;;;7.07;5.63;;;;;;;;;;5096618;28;20205;-84
2021/07/09 14:57:51;;;;;;;7.37;5.80;;;;;;;;;;5099226;28;20206;-84
2021/07/09 15:00:19;;;;;;;10.20;5.27;;;;;;;;;;5095791;28;20659;-83
2021/07/09 15:02:46;;;;;;;8.43;5.77;;;;;;;;;;5097326;28;20689;-83
2021/07/09 15:05:16;;;;;;;6.33;4.97;;;;;;;;;;5095825;28;20224;-84
2021/07/09 15:07:43;;;;;;;6.30;5.00;;;;;;;;;;5093180;28;20272;-83
2021/07/09 15:10:11;;;;;;;6.67;5.10;;;;;;;;;;5088967;28;20209;-84
2021/07/09 15:12:38;;;;;;;5.67;4.53;;;;;;;;;;5091786;28;20286;-83
2021/07/09 15:15:06;;;;;;;7.93;5.07;;;;;;;;;;5090187;28;20626;-84
2021/07/09 15:17:33;;;;;;;7.60;5.17;;;;;;;;;;5090282;28;20284;-84
2021/07/09 15:20:01;;;;;;;8.20;4.50;;;;;;;;;;5095643;28;20206;-82
2021/07/09 15:22:30;;;;;;;9.00;4.73;;;;;;;;;;5087648;28;20226;-83
2021/07/09 15:24:57;;;;;;;5.83;4.53;;;;;;;;;;5088967;28;20861;-84
2021/07/09 15:27:25;;;;;;;7.70;4.70;;;;;;;;;;5090783;28;20220;-84
2021/07/09 15:29:52;;;;;;;7.63;4.73;;;;;;;;;;5093287;28;20549;-84
2021/07/09 15:32:19;;;;;;;6.10;4.80;;;;;;;;;;5088991;28;20271;-84
2021/07/09 15:34:47;;;;;;;7.23;5.10;;;;;;;;;;5097271;28;20688;-84
2021/07/09 15:37:14;;;;;;;7.23;5.17;;;;;;;;;;5093546;28;20208;-84
2021/07/09 15:39:43;;;;;;;6.00;4.77;;;;;;;;;;5096876;28;20205;-82
2021/07/09 15:42:12;;;;;;;7.97;5.33;;;;;;;;;;5110203;28;20241;-82
2021/07/09 15:44:39;;;;;;;10.43;5.40;;;;;;;;;;5110656;28;20225;-82
2021/07/09 15:47:07;;;;;;;7.23;5.67;;;;;;;;;;5096179;28;20221;-83
2021/07/09 15:49:34;;;;;;;8.00;5.83;;;;;;;;;;5087061;28;20193;-83
2021/07/09 15:52:01;;;;;;;8.13;5.90;;;;;;;;;;5092404;28;20260;-83
2021/07/09 15:54:28;;;;;;;7.37;5.30;;;;;;;;;;5086545;28;20198;-83
2021/07/09 15:56:58;;;;;;;8.07;5.50;;;;;;;;;;5085785;28;20286;-84
2021/07/09 15:59:26;;;;;;;6.97;5.30;;;;;;;;;;5086225;28;20233;-83
2021/07/09 16:01:53;;;;;;;10.33;5.73;;;;;;;;;;5092435;28;20236;-83
2021/07/09 16:04:20;;;;;;;9.07;6.07;;;;;;;;;;5089905;28;20221;-83
2021/07/09 16:06:48;;;;;;;9.53;6.27;;;;;;;;;;5088264;28;20236;-84
2021/07/09 16:09:15;;;;;;;7.20;5.00;;;;;;;;;;5086677;28;20701;-83
2021/07/09 16:11:42;;;;;;;9.10;5.60;;;;;;;;;;5091146;28;20316;-84
2021/07/09 16:14:11;;;;;;;8.63;5.53;;;;;;;;;;5093584;28;20221;-84
2021/07/09 16:16:38;;;;;;;8.03;5.63;;;;;;;;;;5089237;28;20503;-84
2021/07/09 16:19:05;;;;;;;9.47;5.50;;;;;;;;;;5089172;28;20206;-85
2021/07/09 16:21:35;;;;;;;9.30;6.20;;;;;;;;;;5093776;28;20234;-83
2021/07/09 16:24:02;;;;;;;8.23;6.13;;;;;;;;;;5091581;28;20306;-84
2021/07/09 16:26:29;;;;;;;9.03;6.13;;;;;;;;;;5087573;28;20205;-84
2021/07/09 16:28:56;;;;;;;11.10;5.47;;;;;;;;;;5090068;28;20209;-84
2021/07/09 16:31:28;;;;;;;8.33;5.60;;;;;;;;;;5090259;28;20611;-84
2021/07/09 16:33:55;;;;;;;10.20;6.20;;;;;;;;;;5090976;28;20197;-83
2021/07/09 16:36:23;;;;;;;8.33;5.83;;;;;;;;;;5083931;28;20206;-83
2021/07/09 16:38:50;;;;;;;9.23;5.97;;;;;;;;;;5090671;28;20613;-83
2021/07/09 16:41:18;;;;;;;8.17;5.23;;;;;;;;;;5092871;28;20229;-84
2021/07/09 16:43:45;;;;;;;14.10;5.50;;;;;;;;;;5096737;22;20771;-74
2021/07/09 16:46:13;;;;;;;10.47;5.87;;;;;;;;;;5080597;28;20668;-74
2021/07/09 16:48:41;;;;;;;9.80;5.63;;;;;;;;;;5077999;28;20758;-73
2021/07/09 16:51:08;;;;;;;9.73;5.57;;;;;;;;;;5084482;28;20568;-74
2021/07/09 16:53:35;;;;;;;9.03;5.83;;;;;;;;;;5079978;28;20301;-74
2021/07/09 16:56:03;;;;;;;8.13;5.70;;;;;;;;;;5082894;28;20613;-76
2021/07/09 16:58:30;;;;;;;13.73;5.97;;;;;;;;;;5070346;28;20354;-75
2021/07/09 17:00:57;;;;;;;8.77;6.07;;;;;;;;;;5076038;28;20197;-75
2021/07/09 17:03:24;;;;;;;7.20;5.60;;;;;;;;;;5092305;28;20206;-75
2021/07/09 17:05:53;;;;;;;7.53;5.23;;;;;;;;;;5088021;28;20225;-75
2021/07/09 17:08:20;;;;;;;8.93;6.50;;;;;;;;;;5075652;28;20206;-75
2021/07/09 17:10:47;;;;;;;9.60;5.73;;;;;;;;;;5071773;28;20208;-75
2021/07/09 17:13:14;;;;;;;8.73;5.90;;;;;;;;;;5069826;28;20210;-75
2021/07/09 17:15:41;;;;;;;7.90;5.70;;;;;;;;;;5079218;28;20302;-75
2021/07/09 17:18:08;;;;;;;10.33;6.43;;;;;;;;;;5078918;28;20259;-75
2021/07/09 17:20:36;;;;;;;9.10;5.93;;;;;;;;;;5073194;28;20205;-75
2021/07/09 17:23:06;;;;;;;9.37;6.47;;;;;;;;;;5077413;28;20210;-75
2021/07/09 17:25:33;;;;;;;8.13;5.63;;;;;;;;;;5075488;28;20229;-75
2021/07/09 17:28:01;;;;;;;12.50;6.03;;;;;;;;;;5082425;28;20616;-75
2021/07/09 17:30:28;;;;;;;9.83;5.70;;;;;;;;;;5071556;28;20205;-75
2021/07/09 17:32:55;;;;;;;6.57;5.37;;;;;;;;;;5077394;28;20205;-75
2021/07/09 17:35:22;;;;;;;9.20;5.70;;;;;;;;;;5085860;28;20308;-76
2021/07/09 17:37:50;;;;;;;7.77;6.00;;;;;;;;;;5087658;28;20284;-76
2021/07/09 17:40:19;;;;;;;10.07;6.50;;;;;;;;;;5087443;28;20837;-75
2021/07/09 17:42:46;;;;;;;13.77;6.40;;;;;;;;;;5077320;28;20293;-75
2021/07/09 17:45:13;;;;;;;8.27;5.73;;;;;;;;;;5077317;28;20230;-75
2021/07/09 17:47:40;;;;;;;10.33;6.60;;;;;;;;;;5070294;28;20293;-75
2021/07/09 17:50:08;;;;;;;9.43;6.17;;;;;;;;;;5086162;28;20204;-75
2021/07/09 17:52:35;;;;;;;9.50;5.70;;;;;;;;;;5078662;28;20197;-75
2021/07/09 17:55:02;;;;;;;13.63;6.43;;;;;;;;;;5073677;28;20242;-75
2021/07/09 17:57:31;;;;;;;8.63;6.20;;;;;;;;;;5074183;28;20198;-75
2021/07/09 18:00:00;;;;;;;10.17;5.87;;;;;;;;;;5074174;28;20212;-75
2021/07/09 18:02:27;;;;;;;9.33;6.10;;;;;;;;;;5063202;28;20214;-75
2021/07/09 18:04:54;;;;;;;10.80;6.50;;;;;;;;;;5065047;28;20632;-76
2021/07/09 18:07:22;;;;;;;10.47;6.27;;;;;;;;;;5073384;28;20202;-76
2021/07/09 18:09:49;;;;;;;10.20;7.00;;;;;;;;;;5069682;28;20213;-76
2021/07/09 18:12:16;;;;;;;10.93;6.93;;;;;;;;;;5074445;28;20216;-76
2021/07/09 18:14:45;;;;;;;10.83;6.50;;;;;;;;;;5077269;28;20572;-75
2021/07/09 18:17:12;;;;;;;8.33;6.07;;;;;;;;;;5072486;28;20285;-76
2021/07/09 18:19:39;;;;;;;7.70;6.80;;;;;;;;;;5076318;28;20197;-76
2021/07/09 18:22:06;;;;;;;10.60;6.67;;;;;;;;;;5072834;28;20210;-76
2021/07/09 18:24:34;;;;;;;8.90;6.30;;;;;;;;;;5074913;28;20222;-75
2021/07/09 18:27:01;;;;;;;12.87;6.47;;;;;;;;;;5074531;28;20206;-74
2021/07/09 18:29:28;;;;;;;12.73;6.47;;;;;;;;;;5079622;28;20501;-74
2021/07/09 18:31:57;;;;;;;10.53;7.10;;;;;;;;;;5083992;28;20211;-74
2021/07/09 18:34:24;;;;;;;10.23;6.63;;;;;;;;;;5074801;28;20206;-74
2021/07/09 18:36:51;;;;;;;10.77;6.97;;;;;;;;;;5082718;28;20208;-74
2021/07/09 18:39:18;;;;;;;8.93;6.53;;;;;;;;;;5081907;28;20297;-74
2021/07/09 18:41:45;;;;;;;12.67;6.90;;;;;;;;;;5072112;28;20289;-74
2021/07/09 18:44:13;;;;;;;12.40;7.63;;;;;;;;;;5075528;28;20226;-74
2021/07/09 18:46:40;;;;;;;15.70;7.70;;;;;;;;;;5074370;28;20726;-74
2021/07/09 18:49:08;;;;;;;15.00;7.30;;;;;;;;;;5082046;28;20209;-74
2021/07/09 18:51:37;;;;;;;14.33;7.43;;;;;;;;;;5078300;28;20585;-74
2021/07/09 18:54:04;;;;;;;14.13;8.03;;;;;;;;;;5071716;28;20660;-74
2021/07/09 18:56:31;;;;;;;10.77;7.10;;;;;;;;;;5075402;28;20631;-74
2021/07/09 18:58:58;;;;;;;11.60;7.90;;;;;;;;;;5080338;28;20215;-74
2021/07/09 19:01:26;;;;;;;11.97;8.30;;;;;;;;;;5070828;28;20287;-74
2021/07/09 19:03:53;;;;;;;14.80;8.50;;;;;;;;;;5083347;28;20263;-75
2021/07/09 19:06:22;;;;;;;12.63;8.27;;;;;;;;;;5072879;28;20580;-74
2021/07/09 19:08:51;;;;;;;12.73;7.93;;;;;;;;;;5075931;28;20202;-74
2021/07/09 19:11:18;;;;;;;13.23;7.80;;;;;;;;;;5076331;28;20230;-74
2021/07/09 19:13:46;;;;;;;13.37;8.20;;;;;;;;;;5074590;28;20533;-74
2021/07/09 19:16:13;;;;;;;11.50;8.27;;;;;;;;;;5072553;28;20325;-74
2021/07/09 19:18:41;;;;;;;15.00;7.90;;;;;;;;;;5079608;28;20206;-74
2021/07/09 19:21:08;;;;;;;16.00;8.50;;;;;;;;;;5075616;28;20210;-74
2021/07/09 19:23:36;;;;;;;16.80;8.60;;;;;;;;;;5081718;28;20526;-74
2021/07/09 19:26:04;;;;;;;12.93;8.80;;;;;;;;;;5074029;28;20234;-74
2021/07/09 19:28:31;;;;;;;12.90;9.17;;;;;;;;;;5082822;28;20200;-74
2021/07/09 19:30:58;;;;;;;17.20;9.13;;;;;;;;;;5087297;28;20552;-74
2021/07/09 19:33:25;;;;;;;21.37;8.90;;;;;;;;;;5075307;28;20202;-74
2021/07/09 19:35:55;;;;;;;14.93;8.77;;;;;;;;;;5074357;28;20756;-74
2021/07/09 19:38:24;;;;;;;12.10;8.70;;;;;;;;;;5075598;28;20244;-74
2021/07/09 19:40:53;;;;;;;13.60;9.70;;;;;;;;;;5075944;28;20204;-74
2021/07/09 19:43:20;;;;;;;16.90;10.00;;;;;;;;;;5071881;28;20671;-74
2021/07/09 19:45:47;;;;;;;14.50;9.03;;;;;;;;;;5072104;28;20350;-74